Time,TemperatureF,DewpointF,PressureIn,WindDirection,WindDirectionDegrees,WindSpeedMPH,WindSpeedGustMPH,Humidity,HourlyPrecipIn,Conditions,Clouds,dailyrainin,SoftwareType,DateUTC
2013-12-28 00:22:00,27.2,22.5,30.41,WSW,238,0.0,0.0,82,0.00,CLR,,0.00,WeatherDisplay:10.37,2013-12-28 05:22:00,
2013-12-28 00:59:00,27.0,22.2,30.40,WSW,238,0.0,0.0,82,0.00,CLR,,0.00,WeatherDisplay:10.37,2013-12-28 05:59:00,
2013-12-28 01:59:00,26.0,21.8,30.40,WSW,239,0.0,0.0,84,0.00,CLR,,0.00,WeatherDisplay:10.37,2013-12-28 06:59:00,
2013-12-28 02:59:00,25.5,21.6,30.40,WSW,239,0.0,0.0,85,0.00,CLR,,0.00,WeatherDisplay:10.37,2013-12-28 07:59:00,
2013-12-28 03:59:00,24.9,21.3,30.39,WSW,238,0.0,0.0,86,0.00,CLR,,0.00,WeatherDisplay:10.37,2013-12-28 08:59:00,
2013-12-28 04:59:00,24.4,20.8,30.38,WSW,239,0.0,0.0,86,0.00,CLR,,0.00,WeatherDisplay:10.37,2013-12-28 09:59:00,
2013-12-28 05:59:00,23.9,20.3,30.40,WSW,239,0.0,0.0,86,0.00,CLR,,0.00,WeatherDisplay:10.37,2013-12-28 10:59:00,
2013-12-28 06:59:00,23.8,20.5,30.42,WSW,238,0.0,0.0,87,0.00,CLR,,0.00,WeatherDisplay:10.37,2013-12-28 11:59:00,
2013-12-28 07:59:00,23.9,20.9,30.41,WSW,238,0.0,0.0,88,0.00,CLR,,0.00,WeatherDisplay:10.37,2013-12-28 12:59:00,
2013-12-28 08:59:00,25.8,23.3,30.42,WSW,238,0.0,0.0,90,0.00,CLR,,0.00,WeatherDisplay:10.37,2013-12-28 13:59:00,
2013-12-28 09:59:00,33.3,30.4,30.41,WSW,239,0.0,0.0,89,0.00,CLR,,0.00,WeatherDisplay:10.37,2013-12-28 14:59:00,
2013-12-28 10:59:00,48.3,33.7,30.40,SW,234,0.0,3.0,57,0.00,CLR,,0.00,WeatherDisplay:10.37,2013-12-28 15:59:00,
2013-12-28 11:59:00,56.2,28.9,30.36,WSW,250,1.0,6.0,35,0.00,CLR,,0.00,WeatherDisplay:10.37,2013-12-28 16:59:00,
2013-12-28 12:59:00,57.6,28.7,30.30,SW,234,0.0,5.0,33,0.00,CLR,,0.00,WeatherDisplay:10.37,2013-12-28 17:59:00,
2013-12-28 13:59:00,60.6,28.1,30.27,SW,219,0.0,6.0,29,0.00,CLR,,0.00,WeatherDisplay:10.37,2013-12-28 18:59:00,
2013-12-28 14:59:00,58.1,26.0,30.27,WSW,244,1.0,6.0,29,0.00,CLR,,0.00,WeatherDisplay:10.37,2013-12-28 19:59:00,
2013-12-28 15:59:00,55.7,27.0,30.26,SW,229,0.0,6.0,33,0.00,CLR,,0.00,WeatherDisplay:10.37,2013-12-28 20:59:00,
2013-12-28 16:59:00,51.1,30.5,30.24,SW,229,0.0,1.0,45,0.00,CLR,,0.00,WeatherDisplay:10.37,2013-12-28 21:59:00,
2013-12-28 17:59:00,47.4,30.2,30.25,SW,229,0.0,0.0,51,0.00,CLR,,0.00,WeatherDisplay:10.37,2013-12-28 22:59:00,
2013-12-28 18:59:00,45.6,32.1,30.24,SW,229,0.0,0.0,59,0.00,CLR,,0.00,WeatherDisplay:10.37,2013-12-28 23:59:00,
2013-12-28 19:59:00,45.0,33.6,30.23,SW,229,0.0,0.0,64,0.00,CLR,,0.00,WeatherDisplay:10.37,2013-12-29 00:59:00,
2013-12-28 20:59:00,44.8,34.5,30.21,SW,229,0.0,0.0,67,0.00,CLR,,0.00,WeatherDisplay:10.37,2013-12-29 01:59:00,
2013-12-28 21:59:00,44.2,33.9,30.19,SW,229,0.0,0.0,67,0.00,CLR,,0.00,WeatherDisplay:10.37,2013-12-29 02:59:00,
2013-12-28 22:59:00,44.4,35.2,30.17,SW,229,0.0,0.0,70,0.00,CLR,,0.00,WeatherDisplay:10.37,2013-12-29 03:59:00,
2013-12-28 23:59:00,44.7,35.5,30.15,SW,229,0.0,0.0,70,0.00,CLR,,0.00,WeatherDisplay:10.37,2013-12-29 04:59:00,